Rechercher aéroport 
image banner adimage banner adimage banner ad
image banner ad

E55 - Ocean Ridge

Situé à Gualala, United States

ICAO - E55, IATA -

Données fournies par Airmate  

Information générale

Coordonnées: N38°48'6" W123°31'50"
Élévation : 940 feet MSL.
Variation magnétique : 13° East
Voir autres Aéroports à California

Données opérationnelles

Special qualification required
Heure actuelle UTC:
Heure actuelle locale:
Météo à : KUKI - Ukiah Muni ( 46 km )
METAR: KUKI 262256Z AUTO 17010G20KT 10SM CLR 31/11 A2982 RMK AO2 SLP091 T03110111
TAF: KUKI 261739Z 2618/2718 15007KT P6SM SKC FM270300 VRB05KT P6SM BKN250 FM270900 17006KT 5SM BR VCSH BKN120 FM271300 15003KT P6SM OVC250
Voir NOTAMs / SUP AIP / TFR affectant cet aéroport [VIEW]
Fréquences de communication: [VIEW]

Pistes:

Identifiant RWYQFULongueur (ft)Largeur (ft)SurfaceLDA (ft)
13250050ASPH
31250050ASPH

Coordonnées de l'aéroport

Adresse: Gualala United States

Vue satellite de E55